createdAt,value
2022-08-05T00:01:35.894Z,26.50
2022-08-05T00:04:16.480Z,26.50
2022-08-05T00:06:47.077Z,26.40
2022-08-05T00:09:19.750Z,26.40
2022-08-05T00:11:49.393Z,26.40
2022-08-05T00:14:27.798Z,26.40
2022-08-05T00:16:57.529Z,26.40
2022-08-05T00:19:32.796Z,26.20
2022-08-05T00:22:03.419Z,26.30
2022-08-05T00:24:32.386Z,26.20
2022-08-05T00:27:04.554Z,26.20
2022-08-05T00:29:38.499Z,26.20
2022-08-05T00:32:13.195Z,26.20
2022-08-05T00:35:03.761Z,26.20
2022-08-05T00:37:50.682Z,26.10
2022-08-05T00:40:26.862Z,26.00
2022-08-05T00:42:56.698Z,26.00
2022-08-05T00:45:38.905Z,25.90
2022-08-05T00:48:11.620Z,26.00
2022-08-05T00:50:42.001Z,26.00
2022-08-05T00:54:01.162Z,25.90
2022-08-05T00:56:01.731Z,25.90
2022-08-05T00:58:29.585Z,25.90
2022-08-05T01:00:57.762Z,25.80
2022-08-05T01:03:33.305Z,25.90
2022-08-05T01:06:03.875Z,25.80
2022-08-05T01:08:42.758Z,25.90
2022-08-05T01:11:21.917Z,25.80
2022-08-05T01:14:01.196Z,25.70
2022-08-05T01:16:38.951Z,25.70
2022-08-05T01:19:15.997Z,25.70
2022-08-05T01:22:07.566Z,25.70
2022-08-05T01:25:04.588Z,25.70
2022-08-05T01:28:10.443Z,25.70
2022-08-05T01:30:53.577Z,25.60
2022-08-05T01:33:26.813Z,25.50
2022-08-05T01:35:57.806Z,25.40
2022-08-05T01:38:29.966Z,25.30
2022-08-05T01:41:01.518Z,25.30
2022-08-05T01:43:33.566Z,25.40
2022-08-05T01:46:07.572Z,25.30
2022-08-05T01:48:52.620Z,25.30
2022-08-05T01:51:21.929Z,25.30
2022-08-05T01:53:57.252Z,25.30
2022-08-05T01:58:12.358Z,25.10
2022-08-05T01:59:23.174Z,25.10
2022-08-05T02:01:54.810Z,25.10
2022-08-05T02:04:24.894Z,25.10
2022-08-05T02:06:54.009Z,25.10
2022-08-05T02:09:22.275Z,25.00
2022-08-05T02:11:59.998Z,25.10
2022-08-05T02:14:34.462Z,24.90
2022-08-05T02:17:08.810Z,24.90
2022-08-05T02:19:50.761Z,24.90
2022-08-05T02:22:25.538Z,24.90
2022-08-05T02:25:02.790Z,24.90
2022-08-05T02:27:58.649Z,24.90
2022-08-05T02:30:24.710Z,24.90
2022-08-05T02:32:57.614Z,24.80
2022-08-05T02:35:28.138Z,24.80
2022-08-05T02:38:02.151Z,24.80
2022-08-05T02:40:32.007Z,24.70
2022-08-05T02:43:02.280Z,24.60
2022-08-05T02:45:52.471Z,24.70
2022-08-05T02:48:29.022Z,24.60
2022-08-05T02:51:00.703Z,24.60
2022-08-05T02:53:39.034Z,24.50
2022-08-05T02:56:09.317Z,24.60
2022-08-05T02:58:38.359Z,24.60
2022-08-05T03:01:19.354Z,24.60
2022-08-05T03:04:02.733Z,24.50
2022-08-05T03:06:55.096Z,24.50
2022-08-05T03:09:36.104Z,24.60
2022-08-05T03:12:08.370Z,24.50
2022-08-05T03:14:45.732Z,24.50
2022-08-05T03:17:15.668Z,24.50
2022-08-05T03:19:45.575Z,24.50
2022-08-05T03:22:15.952Z,24.60
2022-08-05T03:24:47.298Z,24.60
2022-08-05T03:27:19.443Z,24.60
2022-08-05T03:30:08.264Z,24.60
2022-08-05T03:32:37.460Z,24.60
2022-08-05T03:35:06.297Z,24.60
2022-08-05T03:37:46.272Z,24.50
2022-08-05T03:40:24.214Z,24.50
2022-08-05T03:42:53.079Z,24.40
2022-08-05T03:45:23.293Z,24.40
2022-08-05T03:47:57.155Z,24.40
2022-08-05T03:50:27.950Z,24.40
2022-08-05T03:55:34.462Z,24.50
2022-08-05T03:56:10.365Z,24.40
2022-08-05T03:58:43.681Z,24.30
2022-08-05T04:01:14.307Z,24.30
2022-08-05T04:04:09.146Z,24.30
2022-08-05T04:06:36.007Z,24.20
2022-08-05T04:09:06.337Z,24.30
2022-08-05T04:11:50.409Z,24.20
2022-08-05T04:14:30.147Z,24.20
2022-08-05T04:17:00.460Z,24.20
2022-08-05T04:19:31.154Z,24.20
2022-08-05T04:22:08.747Z,24.20
2022-08-05T04:24:43.801Z,24.30
2022-08-05T04:27:12.564Z,24.30
2022-08-05T04:29:40.610Z,24.30
2022-08-05T04:32:09.824Z,24.20
2022-08-05T04:34:42.881Z,24.30
2022-08-05T04:37:11.803Z,24.40
2022-08-05T04:39:40.950Z,24.30
2022-08-05T04:42:10.269Z,24.40
2022-08-05T04:44:39.800Z,24.30
2022-08-05T04:47:09.829Z,24.50
2022-08-05T04:50:01.645Z,24.40
2022-08-05T04:52:28.872Z,24.60
2022-08-05T04:54:57.915Z,24.80
2022-08-05T04:57:29.298Z,24.80
2022-08-05T05:00:05.890Z,25.00
2022-08-05T05:02:43.116Z,25.10
2022-08-05T05:05:26.541Z,25.30
2022-08-05T05:08:01.173Z,25.40
2022-08-05T05:10:30.639Z,25.40
2022-08-05T05:13:03.626Z,25.50
2022-08-05T05:16:01.757Z,25.60
2022-08-05T05:18:31.321Z,25.70
2022-08-05T05:21:05.560Z,25.80
2022-08-05T05:23:39.319Z,25.90
2022-08-05T05:26:28.759Z,25.90
2022-08-05T05:29:02.228Z,26.10
2022-08-05T05:34:02.460Z,26.20
2022-08-05T05:36:32.830Z,26.40
2022-08-05T05:39:05.452Z,26.50
2022-08-05T05:41:40.477Z,26.60
2022-08-05T05:44:36.870Z,26.60
2022-08-05T05:46:58.322Z,26.80
2022-08-05T05:49:30.351Z,26.90
2022-08-05T05:52:06.045Z,27.00
2022-08-05T05:54:50.182Z,27.10
2022-08-05T05:57:19.800Z,27.40
2022-08-05T05:59:48.760Z,27.50
2022-08-05T06:02:17.365Z,27.90
2022-08-05T06:05:03.446Z,28.00
2022-08-05T06:07:41.806Z,28.10
2022-08-05T06:10:11.599Z,28.10
2022-08-05T06:12:42.074Z,28.00
2022-08-05T06:15:16.197Z,28.00
2022-08-05T06:17:52.733Z,27.90
2022-08-05T06:20:21.973Z,27.80
2022-08-05T06:22:51.412Z,27.80
2022-08-05T06:25:25.180Z,27.80
2022-08-05T06:28:12.623Z,28.00
2022-08-05T06:30:49.524Z,28.10
2022-08-05T06:33:19.392Z,28.30
2022-08-05T06:36:05.782Z,28.40
2022-08-05T06:38:39.370Z,28.60
2022-08-05T06:41:14.934Z,28.80
2022-08-05T06:43:59.187Z,28.90
2022-08-05T06:46:29.878Z,28.90
2022-08-05T06:48:59.461Z,29.10
2022-08-05T06:51:29.937Z,29.40
2022-08-05T06:54:01.961Z,29.70
2022-08-05T06:56:34.549Z,30.00
2022-08-05T06:59:03.747Z,30.30
2022-08-05T07:01:37.129Z,30.70
2022-08-05T07:04:09.059Z,30.80
2022-08-05T07:06:37.071Z,30.80
2022-08-05T07:09:06.715Z,30.80
2022-08-05T07:11:37.215Z,30.80
2022-08-05T07:14:30.202Z,30.80
2022-08-05T07:18:08.590Z,30.80
2022-08-05T07:20:31.435Z,30.70
2022-08-05T07:22:39.806Z,30.50
2022-08-05T07:25:55.315Z,30.40
2022-08-05T07:28:04.109Z,30.20
2022-08-05T07:30:39.167Z,30.10
2022-08-05T07:33:10.601Z,30.00
2022-08-05T07:36:04.784Z,29.70
2022-08-05T07:38:42.745Z,29.70
2022-08-05T07:42:08.167Z,29.60
2022-08-05T07:44:14.410Z,29.60
2022-08-05T07:46:49.669Z,29.50
2022-08-05T07:49:18.636Z,29.50
2022-08-05T07:51:52.891Z,29.60
2022-08-05T07:54:31.536Z,29.60
2022-08-05T07:57:17.594Z,29.70
2022-08-05T07:59:52.255Z,29.80
2022-08-05T08:02:26.388Z,29.70
2022-08-05T08:04:58.762Z,30.00
2022-08-05T08:07:28.514Z,30.90
2022-08-05T08:09:56.852Z,31.90
2022-08-05T08:12:38.064Z,32.60
2022-08-05T08:15:15.935Z,32.80
2022-08-05T08:17:49.820Z,32.80
2022-08-05T08:20:59.981Z,33.00
2022-08-05T08:24:00.387Z,33.30
2022-08-05T08:26:00.768Z,33.70
2022-08-05T08:28:36.067Z,34.40
2022-08-05T08:31:05.594Z,34.50
2022-08-05T08:33:37.624Z,34.60
2022-08-05T08:36:38.332Z,34.40
2022-08-05T08:38:56.760Z,34.40
2022-08-05T08:41:50.583Z,34.20
2022-08-05T08:45:19.740Z,34.20
2022-08-05T08:47:47.061Z,34.00
2022-08-05T08:50:13.195Z,33.70
2022-08-05T08:52:52.882Z,33.40
2022-08-05T08:56:01.939Z,33.20
2022-08-05T08:58:13.180Z,32.80
2022-08-05T09:00:44.521Z,32.40
2022-08-05T09:03:16.301Z,32.20
2022-08-05T09:06:08.470Z,32.00
2022-08-05T09:08:37.241Z,32.10
2022-08-05T09:11:08.859Z,32.20
2022-08-05T09:14:10.167Z,32.40
2022-08-05T09:16:33.156Z,32.90
2022-08-05T09:19:02.001Z,33.40
2022-08-05T09:22:23.072Z,34.30
2022-08-05T09:24:24.313Z,35.50
2022-08-05T09:26:53.634Z,35.90
2022-08-05T09:29:21.445Z,36.00
2022-08-05T09:32:46.199Z,35.40
2022-08-05T09:34:58.929Z,35.10
2022-08-05T09:38:12.252Z,34.90
2022-08-05T09:40:34.227Z,34.30
2022-08-05T09:43:08.400Z,34.00
2022-08-05T09:46:06.465Z,34.00
2022-08-05T09:48:30.131Z,34.10
2022-08-05T09:50:59.447Z,34.10
2022-08-05T09:53:53.423Z,34.60
2022-08-05T09:56:25.893Z,35.20
2022-08-05T09:59:03.198Z,35.80
2022-08-05T10:01:34.421Z,35.60
2022-08-05T10:04:10.430Z,36.50
2022-08-05T10:06:40.445Z,37.10
2022-08-05T10:09:25.030Z,38.10
2022-08-05T10:11:56.731Z,38.50
2022-08-05T10:14:28.473Z,38.30
2022-08-05T10:17:37.297Z,37.90
2022-08-05T10:20:10.927Z,37.90
2022-08-05T10:22:42.875Z,38.50
2022-08-05T10:25:14.416Z,38.50
2022-08-05T10:28:09.698Z,39.00
2022-08-05T10:31:19.912Z,39.80
2022-08-05T10:33:19.649Z,40.40
2022-08-05T10:35:59.084Z,40.80
2022-08-05T10:38:33.213Z,41.50
2022-08-05T10:41:08.491Z,41.80
2022-08-05T10:43:49.964Z,42.20
2022-08-05T10:46:24.001Z,42.70
2022-08-05T10:49:01.506Z,43.60
2022-08-05T10:51:57.519Z,43.90
2022-08-05T10:54:56.144Z,44.40
2022-08-05T10:57:32.410Z,44.90
2022-08-05T11:00:19.741Z,44.40
2022-08-05T11:03:23.461Z,43.90
2022-08-05T11:06:16.094Z,44.10
2022-08-05T11:09:24.191Z,44.40
2022-08-05T11:12:00.646Z,44.20
2022-08-05T11:18:00.179Z,43.50
2022-08-05T11:20:45.609Z,42.90
2022-08-05T11:24:03.784Z,41.60
2022-08-05T11:26:29.086Z,40.70
2022-08-05T11:29:12.291Z,39.80
2022-08-05T11:31:57.291Z,38.70
2022-08-05T11:34:39.836Z,37.70
2022-08-05T11:38:28.889Z,37.20
2022-08-05T11:40:03.042Z,36.50
2022-08-05T11:42:38.127Z,36.30
2022-08-05T11:45:23.185Z,35.80
2022-08-05T11:47:59.068Z,35.50
2022-08-05T11:50:27.393Z,35.50
2022-08-05T11:52:58.261Z,35.10
2022-08-05T11:55:32.145Z,34.90
2022-08-05T11:58:10.223Z,34.90
2022-08-05T12:00:41.270Z,34.70
2022-08-05T12:03:29.610Z,34.70
2022-08-05T12:06:05.824Z,34.80
2022-08-05T12:08:35.064Z,34.90
2022-08-05T12:11:10.194Z,34.60
2022-08-05T12:13:58.771Z,34.60
2022-08-05T12:16:34.781Z,34.30
2022-08-05T12:19:08.776Z,34.30
2022-08-05T12:21:44.189Z,34.20
2022-08-05T12:24:17.387Z,34.00
2022-08-05T12:26:47.710Z,33.80
2022-08-05T12:29:22.835Z,33.80
2022-08-05T12:31:54.331Z,33.70
2022-08-05T12:34:26.647Z,33.60
2022-08-05T12:36:57.100Z,33.60
2022-08-05T12:39:28.188Z,33.70
2022-08-05T12:42:10.360Z,33.70
2022-08-05T12:44:45.981Z,33.80
2022-08-05T12:47:27.489Z,33.70
2022-08-05T12:50:02.459Z,33.80
2022-08-05T12:52:38.516Z,33.80
2022-08-05T12:55:22.637Z,33.90
2022-08-05T12:58:51.004Z,34.00
2022-08-05T13:02:03.861Z,34.10
2022-08-05T13:03:42.506Z,34.10
2022-08-05T13:06:16.989Z,34.10
2022-08-05T13:08:50.924Z,33.80
2022-08-05T13:11:25.504Z,33.80
2022-08-05T13:14:20.088Z,33.90
2022-08-05T13:16:56.468Z,34.00
2022-08-05T13:19:26.582Z,34.00
2022-08-05T13:21:56.692Z,34.10
2022-08-05T13:24:36.521Z,34.00
2022-08-05T13:27:17.175Z,33.80
2022-08-05T13:30:34.414Z,33.70
2022-08-05T13:32:51.577Z,33.80
2022-08-05T13:35:22.185Z,33.70
2022-08-05T13:38:05.002Z,33.60
2022-08-05T13:40:49.876Z,33.40
2022-08-05T13:43:22.020Z,33.40
2022-08-05T13:45:50.831Z,33.50
2022-08-05T13:48:58.581Z,33.30
2022-08-05T13:51:09.628Z,33.40
2022-08-05T13:53:48.118Z,33.40
2022-08-05T13:56:18.402Z,33.40
2022-08-05T13:58:52.999Z,33.30
2022-08-05T14:01:27.435Z,33.40
2022-08-05T14:04:28.538Z,33.30
2022-08-05T14:06:58.888Z,33.30
2022-08-05T14:09:46.346Z,33.30
2022-08-05T14:12:18.077Z,33.20
2022-08-05T14:15:00.652Z,33.20
2022-08-05T14:17:34.088Z,33.10
2022-08-05T14:20:04.115Z,33.20
2022-08-05T14:22:35.099Z,33.10
2022-08-05T14:25:06.198Z,32.90
2022-08-05T14:27:48.406Z,32.70
2022-08-05T14:30:20.249Z,32.70
2022-08-05T14:32:49.598Z,32.60
2022-08-05T14:35:22.857Z,32.50
2022-08-05T14:37:55.410Z,32.60
2022-08-05T14:40:24.354Z,32.60
2022-08-05T14:42:52.916Z,32.60
2022-08-05T14:45:21.357Z,32.50
2022-08-05T14:48:05.692Z,32.40
2022-08-05T14:50:40.689Z,32.20
2022-08-05T14:53:09.074Z,31.90
2022-08-05T14:55:39.672Z,31.90
2022-08-05T14:58:11.017Z,31.90
2022-08-05T15:00:59.717Z,32.00
2022-08-05T15:03:33.547Z,31.90
2022-08-05T15:06:15.547Z,31.80
2022-08-05T15:08:58.556Z,31.80
2022-08-05T15:11:51.539Z,31.90
2022-08-05T15:14:20.277Z,31.90
2022-08-05T15:17:03.700Z,31.90
2022-08-05T15:19:32.423Z,32.00
2022-08-05T15:22:02.204Z,31.90
2022-08-05T15:24:30.593Z,32.10
2022-08-05T15:26:58.962Z,32.00
2022-08-05T15:29:29.848Z,31.90
2022-08-05T15:32:02.233Z,31.90
2022-08-05T15:34:32.376Z,31.80
2022-08-05T15:37:06.815Z,31.90
2022-08-05T15:41:00.147Z,31.80
2022-08-05T15:42:54.786Z,31.80
2022-08-05T15:45:23.126Z,31.90
2022-08-05T15:48:07.125Z,32.00
2022-08-05T15:50:35.139Z,32.00
2022-08-05T15:53:05.607Z,32.10
2022-08-05T15:56:02.686Z,32.10
2022-08-05T15:58:23.287Z,32.10
2022-08-05T16:01:11.903Z,32.10
2022-08-05T16:03:41.000Z,32.00
2022-08-05T16:06:11.429Z,32.20
2022-08-05T16:08:41.105Z,32.00
2022-08-05T16:11:10.518Z,31.90
2022-08-05T16:13:38.917Z,32.00
2022-08-05T16:16:07.476Z,31.90
2022-08-05T16:18:52.314Z,31.90
2022-08-05T16:21:58.555Z,32.00
2022-08-05T16:24:39.423Z,32.10
2022-08-05T16:27:00.798Z,32.10
2022-08-05T16:29:31.105Z,32.10
2022-08-05T16:32:06.544Z,32.10
2022-08-05T16:34:41.701Z,32.10
2022-08-05T16:38:00.400Z,32.10
2022-08-05T16:40:06.103Z,32.10
2022-08-05T16:42:36.467Z,32.30
2022-08-05T16:46:06.893Z,32.20
2022-08-05T16:47:57.270Z,32.20
2022-08-05T16:50:27.890Z,32.10
2022-08-05T16:52:56.577Z,32.00
2022-08-05T16:55:25.986Z,32.00
2022-08-05T16:58:01.412Z,31.80
2022-08-05T17:00:34.865Z,31.80
2022-08-05T17:03:03.652Z,31.70
2022-08-05T17:05:33.061Z,31.60
2022-08-05T17:08:06.051Z,31.50
2022-08-05T17:10:37.405Z,31.50
2022-08-05T17:13:05.678Z,31.50
2022-08-05T17:15:48.884Z,31.40
2022-08-05T17:18:21.043Z,31.50
2022-08-05T17:20:49.002Z,31.50
2022-08-05T17:24:03.479Z,31.50
2022-08-05T17:26:07.179Z,31.40
2022-08-05T17:28:36.745Z,31.30
2022-08-05T17:31:08.140Z,31.40
2022-08-05T17:33:39.110Z,31.20
2022-08-05T17:36:33.828Z,31.30
2022-08-05T17:39:03.659Z,31.40
2022-08-05T17:42:18.209Z,31.30
2022-08-05T17:44:26.731Z,31.30
2022-08-05T17:47:00.795Z,31.30
2022-08-05T17:49:28.797Z,31.20
2022-08-05T17:52:16.843Z,31.20
2022-08-05T17:54:44.967Z,31.20
2022-08-05T17:57:14.733Z,31.10
2022-08-05T17:59:42.770Z,31.10
2022-08-05T18:02:11.133Z,31.00
2022-08-05T18:04:51.461Z,31.00
2022-08-05T18:07:21.746Z,30.90
2022-08-05T18:09:59.393Z,30.80
2022-08-05T18:12:31.945Z,30.70
2022-08-05T18:15:02.104Z,30.60
2022-08-05T18:18:01.212Z,30.60
2022-08-05T18:20:18.258Z,30.70
2022-08-05T18:22:54.494Z,30.50
2022-08-05T18:25:23.150Z,30.50
2022-08-05T18:27:54.566Z,30.50
2022-08-05T18:30:22.599Z,30.50
2022-08-05T18:33:01.118Z,30.40
2022-08-05T18:36:00.610Z,30.40
2022-08-05T18:38:19.477Z,30.30
2022-08-05T18:41:55.475Z,30.20
2022-08-05T18:43:49.035Z,30.20
2022-08-05T18:46:20.141Z,30.10
2022-08-05T18:48:52.162Z,30.10
2022-08-05T18:52:05.204Z,30.20
2022-08-05T18:54:27.562Z,30.20
2022-08-05T18:56:58.084Z,30.10
2022-08-05T18:59:43.212Z,30.10
2022-08-05T19:02:36.591Z,30.20
2022-08-05T19:06:11.823Z,30.20
2022-08-05T19:07:58.202Z,30.00
2022-08-05T19:10:28.892Z,29.90
2022-08-05T19:12:57.744Z,29.80
2022-08-05T19:16:00.287Z,29.80
2022-08-05T19:18:21.880Z,29.60
2022-08-05T19:20:52.341Z,29.10
2022-08-05T19:24:03.339Z,27.90
2022-08-05T19:26:11.163Z,26.40
2022-08-05T19:28:42.261Z,25.30
2022-08-05T19:31:18.085Z,24.60
2022-08-05T19:33:56.942Z,23.70
2022-08-05T19:36:25.855Z,23.20
2022-08-05T19:38:55.136Z,22.70
2022-08-05T19:42:06.350Z,22.50
2022-08-05T19:44:18.449Z,22.00
2022-08-05T19:46:50.362Z,21.60
2022-08-05T19:49:18.563Z,21.30
2022-08-05T19:52:08.645Z,21.00
2022-08-05T19:54:36.914Z,20.50
2022-08-05T19:57:08.613Z,20.30
2022-08-05T20:00:01.761Z,20.20
2022-08-05T20:02:31.329Z,20.20
2022-08-05T20:05:00.059Z,20.20
2022-08-05T20:07:45.746Z,20.40
2022-08-05T20:10:14.467Z,20.50
2022-08-05T20:12:46.116Z,20.60
2022-08-05T20:15:48.058Z,20.60
2022-08-05T20:18:10.769Z,20.80
2022-08-05T20:20:55.089Z,20.90
2022-08-05T20:23:39.727Z,20.90
2022-08-05T20:26:16.378Z,21.00
2022-08-05T20:28:46.206Z,21.20
2022-08-05T20:31:16.723Z,21.40
2022-08-05T20:33:46.152Z,21.50
2022-08-05T20:36:17.859Z,21.50
2022-08-05T20:38:53.501Z,21.60
2022-08-05T20:41:27.162Z,21.80
2022-08-05T20:44:19.242Z,21.80
2022-08-05T20:46:58.922Z,22.00
2022-08-05T20:49:28.383Z,21.90
2022-08-05T20:51:57.902Z,21.90
2022-08-05T20:54:43.495Z,22.00
2022-08-05T20:57:21.432Z,22.10
2022-08-05T21:00:20.762Z,22.00
2022-08-05T21:02:56.110Z,21.90
2022-08-05T21:05:28.467Z,21.90
2022-08-05T21:08:06.239Z,21.90
2022-08-05T21:10:34.625Z,21.90
2022-08-05T21:13:10.278Z,21.90
2022-08-05T21:15:46.142Z,21.90
2022-08-05T21:18:19.326Z,21.90
2022-08-05T21:20:53.381Z,21.90
2022-08-05T21:23:23.868Z,22.00
2022-08-05T21:25:52.198Z,22.00
2022-08-05T21:28:30.649Z,22.00
2022-08-05T21:30:58.834Z,22.00
2022-08-05T21:33:26.787Z,22.00
2022-08-05T21:36:09.382Z,21.90
2022-08-05T21:38:40.480Z,21.90
2022-08-05T21:41:09.012Z,21.90
2022-08-05T21:43:41.776Z,21.90
2022-08-05T21:46:10.074Z,21.80
2022-08-05T21:48:39.890Z,21.80
2022-08-05T21:52:15.972Z,21.80
2022-08-05T21:53:59.657Z,21.60
2022-08-05T21:56:31.874Z,21.40
2022-08-05T21:59:01.412Z,21.20
2022-08-05T22:01:36.047Z,21.20
2022-08-05T22:04:04.327Z,21.10
2022-08-05T22:06:35.095Z,21.10
2022-08-05T22:09:14.636Z,21.00
2022-08-05T22:11:43.476Z,21.00
2022-08-05T22:14:34.720Z,20.90
2022-08-05T22:17:07.037Z,20.90
2022-08-05T22:20:00.832Z,20.80
2022-08-05T22:22:26.762Z,20.80
2022-08-05T22:25:20.968Z,20.90
2022-08-05T22:28:08.942Z,20.90
2022-08-05T22:30:55.306Z,20.90
2022-08-05T22:33:58.571Z,20.90
2022-08-05T22:36:14.755Z,20.90
2022-08-05T22:38:47.950Z,20.80
2022-08-05T22:42:04.316Z,20.80
2022-08-05T22:44:05.670Z,20.70
2022-08-05T22:46:33.990Z,20.70
2022-08-05T22:49:12.413Z,20.70
2022-08-05T22:52:05.388Z,20.70
2022-08-05T22:54:37.310Z,20.80
2022-08-05T22:57:07.040Z,20.80
2022-08-05T22:59:45.191Z,20.90
2022-08-05T23:02:29.690Z,21.00
2022-08-05T23:05:01.477Z,21.00
2022-08-05T23:07:32.836Z,21.10
2022-08-05T23:10:14.635Z,21.00
2022-08-05T23:12:43.067Z,21.00
2022-08-05T23:15:12.601Z,21.10
2022-08-05T23:18:01.314Z,21.10
2022-08-05T23:20:28.743Z,21.20
2022-08-05T23:22:58.618Z,21.20
2022-08-05T23:25:51.132Z,21.10
2022-08-05T23:28:17.229Z,21.00
2022-08-05T23:30:53.556Z,21.00
2022-08-05T23:33:26.404Z,21.00
2022-08-05T23:36:13.461Z,20.90
2022-08-05T23:38:43.046Z,20.80
2022-08-05T23:41:13.606Z,20.80
2022-08-05T23:44:05.805Z,20.70
2022-08-05T23:46:30.845Z,20.60
2022-08-05T23:49:00.371Z,20.60
2022-08-05T23:51:54.136Z,20.50
2022-08-05T23:54:25.090Z,20.50
2022-08-05T23:57:03.146Z,20.50
